PWSweather.com
Personal Weather Stations
Station Observations
LEONMETEO
LeonES 24008

LeonES 24008

Lat: 42.6055559, Lon: -5.5752249

Elevation: 2690

Station Type: La Crosse WS3600

Latest ConditionsUpdated 11:41:27 PM GMT+01:01 Friday, Nov 28, 2014
Currently Today's Max Today's Min Today's Average
Temperature 47.3°F8.5°C 49.6°F9.8°C 44.0°F6.7°C 46.3°F7.9°C
Dew Point 43.6°F6.4°C 45.5°F7.5°C 40.4°F4.7°C 42.2°F5.7°C
Winds - N16091.8 kmh N Calm Calm - Calm Calm
Wind Gusts -- -- - -
Humidity 88% 88% 82% 86%
Pressure 29.16 in987.5 mb 29.16 in987.5 mb 28.82 in976.0 mb -
Hour Temp Dew Point Humidity Winds Wind Gusts Pressure Precip Precip Rate Daily Precip Total
11:41 PM 47.3°F8.5°C 43.6°F6.4°C 88% - N16091.8 kmh N -- 29.16 in987.5 mb 0.00 in0.0 mm 0.00 in/hr0.0 mm/hr 0.00 in0.0 mm
11:36 PM 47.3°F8.5°C 43.6°F6.4°C 87% - N16091.8 kmh N -- 29.16 in987.5 mb 0.00 in0.0 mm 0.00 in/hr0.0 mm/hr 0.00 in0.0 mm
11:31 PM 47.3°F8.5°C 43.6°F6.4°C 87% - N16091.8 kmh N -- 29.16 in987.5 mb 0.00 in0.0 mm 0.00 in/hr0.0 mm/hr 0.00 in0.0 mm
11:26 PM 47.1°F8.4°C 43.4°F6.3°C 87% - N16091.8 kmh N -- 29.15 in987.1 mb 0.00 in0.0 mm 0.00 in/hr0.0 mm/hr 0.00 in0.0 mm
11:21 PM 47.1°F8.4°C 43.4°F6.3°C 87% - N16091.8 kmh N -- 29.15 in987.1 mb 0.00 in0.0 mm 0.00 in/hr0.0 mm/hr 0.00 in0.0 mm
11:16 PM 47.1°F8.4°C 43.4°F6.3°C 87% - N16091.8 kmh N -- 29.14 in986.8 mb 0.00 in0.0 mm 0.00 in/hr0.0 mm/hr 0.00 in0.0 mm
11:10 PM 47.1°F8.4°C 43.4°F6.3°C 87% - N16091.8 kmh N -- 29.15 in987.1 mb 0.00 in0.0 mm 0.00 in/hr0.0 mm/hr 0.00 in0.0 mm
11:05 PM 47.1°F8.4°C 43.4°F6.3°C 87% - N16091.8 kmh N -- 29.15 in987.1 mb 0.00 in0.0 mm 0.00 in/hr0.0 mm/hr 0.00 in0.0 mm
11:00 PM 47.1°F8.4°C 43.4°F6.3°C 87% - N16091.8 kmh N -- 29.15 in987.1 mb 0.00 in0.0 mm 0.00 in/hr0.0 mm/hr 0.00 in0.0 mm
10:55 PM 47.1°F8.4°C 43.4°F6.3°C 87% - N16091.8 kmh N -- 29.15 in987.1 mb 0.00 in0.0 mm 0.00 in/hr0.0 mm/hr 0.00 in0.0 mm
10:50 PM 46.9°F8.3°C 43.3°F6.3°C 87% - N16091.8 kmh N -- 29.14 in986.8 mb 0.00 in0.0 mm 0.00 in/hr0.0 mm/hr 0.00 in0.0 mm
10:45 PM 46.9°F8.3°C 43.3°F6.3°C 87% - N16091.8 kmh N -- 29.14 in986.8 mb 0.00 in0.0 mm 0.00 in/hr0.0 mm/hr 0.00 in0.0 mm
10:40 PM 46.9°F8.3°C 43.3°F6.3°C 87% - N16091.8 kmh N -- 29.14 in986.8 mb 0.00 in0.0 mm 0.00 in/hr0.0 mm/hr 0.00 in0.0 mm
10:35 PM 46.9°F8.3°C 43.3°F6.3°C 87% - N16091.8 kmh N -- 29.14 in986.8 mb 0.00 in0.0 mm 0.00 in/hr0.0 mm/hr 0.00 in0.0 mm
10:30 PM 46.7°F8.2°C 43.1°F6.2°C 87% - N16091.8 kmh N -- 29.13 in986.5 mb 0.00 in0.0 mm 0.00 in/hr0.0 mm/hr 0.00 in0.0 mm
10:25 PM 46.5°F8.1°C 42.9°F6.1°C 87% - N16091.8 kmh N -- 29.13 in986.5 mb 0.00 in0.0 mm 0.00 in/hr0.0 mm/hr 0.00 in0.0 mm
10:20 PM 46.5°F8.1°C 42.9°F6.1°C 87% - N16091.8 kmh N -- 29.13 in986.5 mb 0.00 in0.0 mm 0.00 in/hr0.0 mm/hr 0.00 in0.0 mm
10:15 PM 46.5°F8.1°C 42.9°F6.1°C 87% - N16091.8 kmh N -- 29.13 in986.5 mb 0.00 in0.0 mm 0.00 in/hr0.0 mm/hr 0.00 in0.0 mm
10:09 PM 46.4°F8.0°C 42.7°F5.9°C 87% - N16091.8 kmh N -- 29.12 in986.1 mb 0.00 in0.0 mm 0.00 in/hr0.0 mm/hr 0.00 in0.0 mm
10:04 PM 46.4°F8.0°C 42.7°F5.9°C 87% - N16091.8 kmh N -- 29.12 in986.1 mb 0.00 in0.0 mm 0.00 in/hr0.0 mm/hr 0.00 in0.0 mm
09:59 PM 46.4°F8.0°C 42.7°F5.9°C 87% - N16091.8 kmh N -- 29.11 in985.8 mb 0.00 in0.0 mm 0.00 in/hr0.0 mm/hr 0.00 in0.0 mm
09:55 PM 46.2°F7.9°C 42.2°F5.7°C 86% - N16091.8 kmh N -- 29.11 in985.8 mb 0.00 in0.0 mm 0.00 in/hr0.0 mm/hr 0.00 in0.0 mm
09:50 PM 46.2°F7.9°C 42.2°F5.7°C 86% - N16091.8 kmh N -- 29.11 in985.8 mb 0.00 in0.0 mm 0.00 in/hr0.0 mm/hr 0.00 in0.0 mm
09:45 PM 46.2°F7.9°C 42.2°F5.7°C 86% - N16091.8 kmh N -- 29.11 in985.8 mb 0.00 in0.0 mm 0.00 in/hr0.0 mm/hr 0.00 in0.0 mm
09:40 PM 46.2°F7.9°C 42.2°F5.7°C 86% - N16091.8 kmh N -- 29.11 in985.8 mb 0.00 in0.0 mm 0.00 in/hr0.0 mm/hr 0.00 in0.0 mm
09:35 PM 46.2°F7.9°C 42.2°F5.7°C 86% - N16091.8 kmh N -- 29.11 in985.8 mb 0.00 in0.0 mm 0.00 in/hr0.0 mm/hr 0.00 in0.0 mm
09:31 PM 46.2°F7.9°C 42.2°F5.7°C 86% - N16091.8 kmh N -- 29.10 in985.4 mb 0.00 in0.0 mm 0.00 in/hr0.0 mm/hr 0.00 in0.0 mm
09:26 PM 46.2°F7.9°C 42.2°F5.7°C 86% - N16091.8 kmh N -- 29.11 in985.8 mb 0.00 in0.0 mm 0.00 in/hr0.0 mm/hr 0.00 in0.0 mm
09:21 PM 46.2°F7.9°C 42.2°F5.7°C 86% - N16091.8 kmh N -- 29.11 in985.8 mb 0.00 in0.0 mm 0.00 in/hr0.0 mm/hr 0.00 in0.0 mm
09:16 PM 46.2°F7.9°C 42.2°F5.7°C 86% - N16091.8 kmh N -- 29.10 in985.4 mb 0.00 in0.0 mm 0.00 in/hr0.0 mm/hr 0.00 in0.0 mm
09:11 PM 46.2°F7.9°C 42.2°F5.7°C 86% - N16091.8 kmh N -- 29.11 in985.8 mb 0.00 in0.0 mm 0.00 in/hr0.0 mm/hr 0.00 in0.0 mm
09:10 PM 46.2°F7.9°C 42.2°F5.7°C 86% - N16091.8 kmh N -- 29.11 in985.8 mb 0.00 in0.0 mm 0.00 in/hr0.0 mm/hr 0.00 in0.0 mm
09:06 PM 46.4°F8.0°C 42.4°F5.8°C 86% - N16091.8 kmh N -- 29.10 in985.4 mb 0.00 in0.0 mm 0.00 in/hr0.0 mm/hr 0.00 in0.0 mm
09:05 PM 46.4°F8.0°C 42.4°F5.8°C 86% - N16091.8 kmh N -- 29.10 in985.4 mb 0.00 in0.0 mm 0.00 in/hr0.0 mm/hr 0.00 in0.0 mm
09:01 PM 46.4°F8.0°C 42.4°F5.8°C 86% - N16091.8 kmh N -- 29.10 in985.4 mb 0.00 in0.0 mm 0.00 in/hr0.0 mm/hr 0.00 in0.0 mm
09:00 PM 46.4°F8.0°C 42.4°F5.8°C 86% - N16091.8 kmh N -- 29.10 in985.4 mb 0.00 in0.0 mm 0.00 in/hr0.0 mm/hr 0.00 in0.0 mm
08:56 PM 46.5°F8.1°C 42.6°F5.9°C 86% - N16091.8 kmh N -- 29.10 in985.4 mb 0.00 in0.0 mm 0.00 in/hr0.0 mm/hr 0.00 in0.0 mm
08:55 PM 46.5°F8.1°C 42.6°F5.9°C 86% - N16091.8 kmh N -- 29.10 in985.4 mb 0.00 in0.0 mm 0.00 in/hr0.0 mm/hr 0.00 in0.0 mm
08:51 PM 46.7°F8.2°C 42.8°F6.0°C 86% - N16091.8 kmh N -- 29.10 in985.4 mb 0.00 in0.0 mm 0.00 in/hr0.0 mm/hr 0.00 in0.0 mm
08:50 PM 46.7°F8.2°C 42.8°F6.0°C 86% - N16091.8 kmh N -- 29.10 in985.4 mb 0.00 in0.0 mm 0.00 in/hr0.0 mm/hr 0.00 in0.0 mm
08:45 PM 46.9°F8.3°C 42.9°F6.1°C 86% - N16091.8 kmh N -- 29.09 in985.1 mb 0.00 in0.0 mm 0.00 in/hr0.0 mm/hr 0.00 in0.0 mm
08:40 PM 47.1°F8.4°C 43.1°F6.2°C 86% - N16091.8 kmh N -- 29.08 in984.8 mb 0.00 in0.0 mm 0.00 in/hr0.0 mm/hr 0.00 in0.0 mm
08:35 PM 47.1°F8.4°C 43.1°F6.2°C 86% - N16091.8 kmh N -- 29.08 in984.8 mb 0.00 in0.0 mm 0.00 in/hr0.0 mm/hr 0.00 in0.0 mm
08:30 PM 47.1°F8.4°C 43.1°F6.2°C 86% - N16091.8 kmh N -- 29.08 in984.8 mb 0.00 in0.0 mm 0.00 in/hr0.0 mm/hr 0.00 in0.0 mm
08:25 PM 46.9°F8.3°C 42.9°F6.1°C 86% - N16091.8 kmh N -- 29.07 in984.4 mb 0.00 in0.0 mm 0.00 in/hr0.0 mm/hr 0.00 in0.0 mm
08:20 PM 47.1°F8.4°C 43.1°F6.2°C 86% - N16091.8 kmh N -- 29.07 in984.4 mb 0.00 in0.0 mm 0.00 in/hr0.0 mm/hr 0.00 in0.0 mm
08:15 PM 47.1°F8.4°C 43.1°F6.2°C 86% - N16091.8 kmh N -- 29.07 in984.4 mb 0.00 in0.0 mm 0.00 in/hr0.0 mm/hr 0.00 in0.0 mm
08:10 PM 47.1°F8.4°C 43.1°F6.2°C 86% - N16091.8 kmh N -- 29.07 in984.4 mb 0.00 in0.0 mm 0.00 in/hr0.0 mm/hr 0.00 in0.0 mm
08:05 PM 47.3°F8.5°C 43.0°F6.1°C 86% - N16091.8 kmh N -- 29.07 in984.4 mb 0.00 in0.0 mm 0.00 in/hr0.0 mm/hr 0.00 in0.0 mm
08:00 PM 47.3°F8.5°C 43.0°F6.1°C 86% - N16091.8 kmh N -- 29.06 in984.1 mb 0.00 in0.0 mm 0.00 in/hr0.0 mm/hr 0.00 in0.0 mm
07:55 PM 47.3°F8.5°C 43.0°F6.1°C 85% - N16091.8 kmh N -- 29.06 in984.1 mb 0.00 in0.0 mm 0.00 in/hr0.0 mm/hr 0.00 in0.0 mm
07:50 PM 47.3°F8.5°C 43.0°F6.1°C 85% - N16091.8 kmh N -- 29.06 in984.1 mb 0.00 in0.0 mm 0.00 in/hr0.0 mm/hr 0.00 in0.0 mm
07:45 PM 47.4°F8.6°C 42.8°F6.0°C 85% - N16091.8 kmh N -- 29.06 in984.1 mb 0.00 in0.0 mm 0.00 in/hr0.0 mm/hr 0.00 in0.0 mm
07:40 PM 47.4°F8.6°C 42.8°F6.0°C 85% - N16091.8 kmh N -- 29.06 in984.1 mb 0.00 in0.0 mm 0.00 in/hr0.0 mm/hr 0.00 in0.0 mm
07:35 PM 47.4°F8.6°C 42.8°F6.0°C 85% - N16091.8 kmh N -- 29.06 in984.1 mb 0.00 in0.0 mm 0.00 in/hr0.0 mm/hr 0.00 in0.0 mm
07:30 PM 47.4°F8.6°C 42.8°F6.0°C 85% - N16091.8 kmh N -- 29.05 in983.7 mb 0.00 in0.0 mm 0.00 in/hr0.0 mm/hr 0.00 in0.0 mm
07:25 PM 47.4°F8.6°C 42.8°F6.0°C 85% - N16091.8 kmh N -- 29.05 in983.7 mb 0.00 in0.0 mm 0.00 in/hr0.0 mm/hr 0.00 in0.0 mm
07:20 PM 47.4°F8.6°C 42.8°F6.0°C 85% - N16091.8 kmh N -- 29.05 in983.7 mb 0.00 in0.0 mm 0.00 in/hr0.0 mm/hr 0.00 in0.0 mm
07:15 PM 47.4°F8.6°C 42.8°F6.0°C 85% - N16091.8 kmh N -- 29.05 in983.7 mb 0.00 in0.0 mm 0.00 in/hr0.0 mm/hr 0.00 in0.0 mm
07:10 PM 47.4°F8.6°C 42.8°F6.0°C 85% - N16091.8 kmh N -- 29.04 in983.4 mb 0.00 in0.0 mm 0.00 in/hr0.0 mm/hr 0.00 in0.0 mm
07:05 PM 47.4°F8.6°C 42.8°F6.0°C 85% - N16091.8 kmh N -- 29.04 in983.4 mb 0.00 in0.0 mm 0.00 in/hr0.0 mm/hr 0.00 in0.0 mm
07:00 PM 47.4°F8.6°C 42.8°F6.0°C 84% - N16091.8 kmh N -- 29.04 in983.4 mb 0.00 in0.0 mm 0.00 in/hr0.0 mm/hr 0.00 in0.0 mm
06:55 PM 47.4°F8.6°C 42.8°F6.0°C 84% - N16091.8 kmh N -- 29.03 in983.1 mb 0.00 in0.0 mm 0.00 in/hr0.0 mm/hr 0.00 in0.0 mm
06:50 PM 47.4°F8.6°C 42.8°F6.0°C 84% - N16091.8 kmh N -- 29.03 in983.1 mb 0.00 in0.0 mm 0.00 in/hr0.0 mm/hr 0.00 in0.0 mm
06:45 PM 47.6°F8.7°C 43.0°F6.1°C 84% - N16091.8 kmh N -- 29.03 in983.1 mb 0.00 in0.0 mm 0.00 in/hr0.0 mm/hr 0.00 in0.0 mm
06:40 PM 47.4°F8.6°C 42.5°F5.8°C 83% - N16091.8 kmh N -- 29.03 in983.1 mb 0.00 in0.0 mm 0.00 in/hr0.0 mm/hr 0.00 in0.0 mm
06:35 PM 47.4°F8.6°C 42.5°F5.8°C 83% - N16091.8 kmh N -- 29.03 in983.1 mb 0.00 in0.0 mm 0.00 in/hr0.0 mm/hr 0.00 in0.0 mm
06:30 PM 47.4°F8.6°C 42.5°F5.8°C 83% - N16091.8 kmh N -- 29.02 in982.7 mb 0.00 in0.0 mm 0.00 in/hr0.0 mm/hr 0.00 in0.0 mm
06:25 PM 47.4°F8.6°C 42.5°F5.8°C 83% - N16091.8 kmh N -- 29.02 in982.7 mb 0.00 in0.0 mm 0.00 in/hr0.0 mm/hr 0.00 in0.0 mm
06:20 PM 47.8°F8.8°C 42.5°F5.8°C 82% - N16091.8 kmh N -- 29.01 in982.4 mb 0.00 in0.0 mm 0.00 in/hr0.0 mm/hr 0.00 in0.0 mm
06:15 PM 48.0°F8.9°C 43.0°F6.1°C 82% - N16091.8 kmh N -- 29.01 in982.4 mb 0.00 in0.0 mm 0.00 in/hr0.0 mm/hr 0.00 in0.0 mm
06:09 PM 48.0°F8.9°C 43.0°F6.1°C 82% - N16091.8 kmh N -- 29.01 in982.4 mb 0.00 in0.0 mm 0.00 in/hr0.0 mm/hr 0.00 in0.0 mm
06:05 PM 48.0°F8.9°C 43.0°F6.1°C 83% - N16091.8 kmh N -- 29.00 in982.1 mb 0.00 in0.0 mm 0.00 in/hr0.0 mm/hr 0.00 in0.0 mm
06:00 PM 48.0°F8.9°C 43.0°F6.1°C 83% - N16091.8 kmh N -- 29.00 in982.1 mb 0.00 in0.0 mm 0.00 in/hr0.0 mm/hr 0.00 in0.0 mm
05:55 PM 48.3°F9.1°C 43.4°F6.3°C 83% - N16091.8 kmh N -- 29.00 in982.1 mb 0.00 in0.0 mm 0.00 in/hr0.0 mm/hr 0.00 in0.0 mm
05:50 PM 48.5°F9.2°C 43.5°F6.4°C 83% - N16091.8 kmh N -- 29.00 in982.1 mb 0.00 in0.0 mm 0.00 in/hr0.0 mm/hr 0.00 in0.0 mm
05:45 PM 48.7°F9.3°C 44.0°F6.7°C 84% - N16091.8 kmh N -- 28.99 in981.7 mb 0.00 in0.0 mm 0.00 in/hr0.0 mm/hr 0.00 in0.0 mm
05:33 PM 48.7°F9.3°C 44.0°F6.7°C 84% - N16091.8 kmh N -- 28.98 in981.4 mb 0.00 in0.0 mm 0.00 in/hr0.0 mm/hr 0.00 in0.0 mm
05:31 PM 48.9°F9.4°C 44.2°F6.8°C 84% - N16091.8 kmh N -- 28.98 in981.4 mb 0.00 in0.0 mm 0.00 in/hr0.0 mm/hr 0.00 in0.0 mm
05:26 PM 48.9°F9.4°C 44.2°F6.8°C 84% - N16091.8 kmh N -- 28.98 in981.4 mb 0.00 in0.0 mm 0.00 in/hr0.0 mm/hr 0.00 in0.0 mm
05:19 PM 48.9°F9.4°C 44.2°F6.8°C 84% - N16091.8 kmh N -- 28.98 in981.4 mb 0.00 in0.0 mm 0.00 in/hr0.0 mm/hr 0.00 in0.0 mm
05:14 PM 48.9°F9.4°C 44.2°F6.8°C 84% - N16091.8 kmh N -- 28.97 in981.0 mb 0.00 in0.0 mm 0.00 in/hr0.0 mm/hr 0.00 in0.0 mm
05:04 PM 48.9°F9.4°C 44.2°F6.8°C 84% - N16091.8 kmh N -- 28.97 in981.0 mb 0.00 in0.0 mm 0.00 in/hr0.0 mm/hr 0.00 in0.0 mm
05:00 PM 49.1°F9.5°C 44.4°F6.9°C 84% - N16091.8 kmh N -- 28.96 in980.7 mb 0.00 in0.0 mm 0.00 in/hr0.0 mm/hr 0.00 in0.0 mm
04:43 PM 49.1°F9.5°C 44.7°F7.1°C 85% - N16091.8 kmh N -- 28.95 in980.4 mb 0.00 in0.0 mm 0.00 in/hr0.0 mm/hr 0.00 in0.0 mm
04:42 PM 49.1°F9.5°C 44.7°F7.1°C 85% - N16091.8 kmh N -- 28.95 in980.4 mb 0.00 in0.0 mm 0.00 in/hr0.0 mm/hr 0.00 in0.0 mm
04:39 PM 49.1°F9.5°C 44.7°F7.1°C 85% - N16091.8 kmh N -- 28.95 in980.4 mb 0.00 in0.0 mm 0.00 in/hr0.0 mm/hr 0.00 in0.0 mm
04:33 PM 49.1°F9.5°C 44.7°F7.1°C 85% - N16091.8 kmh N -- 28.95 in980.4 mb 0.00 in0.0 mm 0.00 in/hr0.0 mm/hr 0.00 in0.0 mm
04:23 PM 49.1°F9.5°C 44.7°F7.1°C 85% - N16091.8 kmh N -- 28.95 in980.4 mb 0.00 in0.0 mm 0.00 in/hr0.0 mm/hr 0.00 in0.0 mm
04:21 PM 48.9°F9.4°C 44.5°F6.9°C 85% - N16091.8 kmh N -- 28.94 in980.0 mb 0.00 in0.0 mm 0.00 in/hr0.0 mm/hr 0.00 in0.0 mm
04:19 PM 48.9°F9.4°C 44.5°F6.9°C 85% - N16091.8 kmh N -- 28.94 in980.0 mb 0.00 in0.0 mm 0.00 in/hr0.0 mm/hr 0.00 in0.0 mm
04:17 PM 48.9°F9.4°C 44.5°F6.9°C 85% - N16091.8 kmh N -- 28.94 in980.0 mb 0.00 in0.0 mm 0.00 in/hr0.0 mm/hr 0.00 in0.0 mm
03:07 PM 48.7°F9.3°C 44.0°F6.7°C 85% - N16091.8 kmh N -- 28.90 in978.7 mb 0.00 in0.0 mm 0.00 in/hr0.0 mm/hr 0.00 in0.0 mm
03:02 PM 48.7°F9.3°C 44.0°F6.7°C 84% - N16091.8 kmh N -- 28.90 in978.7 mb 0.00 in0.0 mm 0.00 in/hr0.0 mm/hr 0.00 in0.0 mm
02:57 PM 48.9°F9.4°C 44.2°F6.8°C 84% - N16091.8 kmh N -- 28.90 in978.7 mb 0.00 in0.0 mm 0.00 in/hr0.0 mm/hr 0.00 in0.0 mm
02:52 PM 49.1°F9.5°C 44.1°F6.7°C 84% - N16091.8 kmh N -- 28.90 in978.7 mb 0.00 in0.0 mm 0.00 in/hr0.0 mm/hr 0.00 in0.0 mm
02:47 PM 49.4°F9.7°C 44.7°F7.1°C 84% - N16091.8 kmh N -- 28.90 in978.7 mb 0.00 in0.0 mm 0.00 in/hr0.0 mm/hr 0.00 in0.0 mm
02:42 PM 49.6°F9.8°C 45.5°F7.5°C 84% - N16091.8 kmh N -- 28.90 in978.7 mb 0.00 in0.0 mm 0.00 in/hr0.0 mm/hr 0.00 in0.0 mm
02:37 PM 49.6°F9.8°C 45.5°F7.5°C 84% - N16091.8 kmh N -- 28.90 in978.7 mb 0.00 in0.0 mm 0.00 in/hr0.0 mm/hr 0.00 in0.0 mm
02:32 PM 49.6°F9.8°C 45.5°F7.5°C 85% - N16091.8 kmh N -- 28.90 in978.7 mb 0.00 in0.0 mm 0.00 in/hr0.0 mm/hr 0.00 in0.0 mm
02:27 PM 49.6°F9.8°C 45.5°F7.5°C 86% - N16091.8 kmh N -- 28.90 in978.7 mb 0.00 in0.0 mm 0.00 in/hr0.0 mm/hr 0.00 in0.0 mm
02:22 PM 49.2°F9.6°C 45.2°F7.3°C 86% - N16091.8 kmh N -- 28.89 in978.3 mb 0.00 in0.0 mm 0.00 in/hr0.0 mm/hr 0.00 in0.0 mm
02:17 PM 48.7°F9.3°C 45.0°F7.2°C 87% - N16091.8 kmh N -- 28.89 in978.3 mb 0.00 in0.0 mm 0.00 in/hr0.0 mm/hr 0.00 in0.0 mm
02:12 PM 48.5°F9.2°C 44.8°F7.1°C 87% - N16091.8 kmh N -- 28.89 in978.3 mb 0.00 in0.0 mm 0.00 in/hr0.0 mm/hr 0.00 in0.0 mm
02:07 PM 48.2°F9.0°C 44.5°F6.9°C 87% - N16091.8 kmh N -- 28.89 in978.3 mb 0.00 in0.0 mm 0.00 in/hr0.0 mm/hr 0.00 in0.0 mm
02:02 PM 47.8°F8.8°C 44.1°F6.7°C 87% - N16091.8 kmh N -- 28.89 in978.3 mb 0.00 in0.0 mm 0.00 in/hr0.0 mm/hr 0.00 in0.0 mm
01:57 PM 47.8°F8.8°C 44.1°F6.7°C 87% - N16091.8 kmh N -- 28.89 in978.3 mb 0.00 in0.0 mm 0.00 in/hr0.0 mm/hr 0.00 in0.0 mm
01:52 PM 47.4°F8.6°C 43.8°F6.6°C 87% - N16091.8 kmh N -- 28.89 in978.3 mb 0.00 in0.0 mm 0.00 in/hr0.0 mm/hr 0.00 in0.0 mm
01:47 PM 47.3°F8.5°C 43.6°F6.4°C 87% - N16091.8 kmh N -- 28.88 in978.0 mb 0.00 in0.0 mm 0.00 in/hr0.0 mm/hr 0.00 in0.0 mm
01:42 PM 47.1°F8.4°C 43.4°F6.3°C 87% - N16091.8 kmh N -- 28.88 in978.0 mb 0.00 in0.0 mm 0.00 in/hr0.0 mm/hr 0.00 in0.0 mm
01:37 PM 46.9°F8.3°C 43.3°F6.3°C 87% - N16091.8 kmh N -- 28.88 in978.0 mb 0.00 in0.0 mm 0.00 in/hr0.0 mm/hr 0.00 in0.0 mm
01:31 PM 46.9°F8.3°C 43.3°F6.3°C 87% - N16091.8 kmh N -- 28.88 in978.0 mb 0.00 in0.0 mm 0.00 in/hr0.0 mm/hr 0.00 in0.0 mm
01:27 PM 46.9°F8.3°C 43.3°F6.3°C 87% - N16091.8 kmh N -- 28.88 in978.0 mb 0.00 in0.0 mm 0.00 in/hr0.0 mm/hr 0.00 in0.0 mm
01:21 PM 46.9°F8.3°C 43.3°F6.3°C 87% - N16091.8 kmh N -- 28.88 in978.0 mb 0.00 in0.0 mm 0.00 in/hr0.0 mm/hr 0.00 in0.0 mm
01:16 PM 46.7°F8.2°C 43.1°F6.2°C 87% - N16091.8 kmh N -- 28.88 in978.0 mb 0.00 in0.0 mm 0.00 in/hr0.0 mm/hr 0.00 in0.0 mm
01:12 PM 46.7°F8.2°C 43.1°F6.2°C 87% - N16091.8 kmh N -- 28.88 in978.0 mb 0.00 in0.0 mm 0.00 in/hr0.0 mm/hr 0.00 in0.0 mm
01:07 PM 46.5°F8.1°C 42.9°F6.1°C 87% - N16091.8 kmh N -- 28.88 in978.0 mb 0.00 in0.0 mm 0.00 in/hr0.0 mm/hr 0.00 in0.0 mm
01:02 PM 46.5°F8.1°C 42.9°F6.1°C 87% - N16091.8 kmh N -- 28.88 in978.0 mb 0.00 in0.0 mm 0.00 in/hr0.0 mm/hr 0.00 in0.0 mm
12:57 PM 46.4°F8.0°C 42.7°F5.9°C 87% - N16091.8 kmh N -- 28.88 in978.0 mb 0.00 in0.0 mm 0.00 in/hr0.0 mm/hr 0.00 in0.0 mm
12:51 PM 46.5°F8.1°C 42.9°F6.1°C 87% - N16091.8 kmh N -- 28.88 in978.0 mb 0.00 in0.0 mm 0.00 in/hr0.0 mm/hr 0.00 in0.0 mm
12:47 PM 46.5°F8.1°C 42.9°F6.1°C 87% - N16091.8 kmh N -- 28.88 in978.0 mb 0.00 in0.0 mm 0.00 in/hr0.0 mm/hr 0.00 in0.0 mm
12:42 PM 46.5°F8.1°C 42.9°F6.1°C 87% - N16091.8 kmh N -- 28.88 in978.0 mb 0.00 in0.0 mm 0.00 in/hr0.0 mm/hr 0.00 in0.0 mm
12:37 PM 46.5°F8.1°C 42.9°F6.1°C 87% - N16091.8 kmh N -- 28.88 in978.0 mb 0.00 in0.0 mm 0.00 in/hr0.0 mm/hr 0.00 in0.0 mm
12:32 PM 46.5°F8.1°C 42.9°F6.1°C 87% - N16091.8 kmh N -- 28.88 in978.0 mb 0.00 in0.0 mm 0.00 in/hr0.0 mm/hr 0.00 in0.0 mm
12:26 PM 46.5°F8.1°C 42.9°F6.1°C 87% - N16091.8 kmh N -- 28.87 in977.7 mb 0.00 in0.0 mm 0.00 in/hr0.0 mm/hr 0.00 in0.0 mm
12:21 PM 46.5°F8.1°C 42.9°F6.1°C 87% - N16091.8 kmh N -- 28.87 in977.7 mb 0.00 in0.0 mm 0.00 in/hr0.0 mm/hr 0.00 in0.0 mm
12:16 PM 46.5°F8.1°C 42.9°F6.1°C 87% - N16091.8 kmh N -- 28.87 in977.7 mb 0.00 in0.0 mm 0.00 in/hr0.0 mm/hr 0.00 in0.0 mm
12:11 PM 46.5°F8.1°C 42.9°F6.1°C 87% - N16091.8 kmh N -- 28.87 in977.7 mb 0.00 in0.0 mm 0.00 in/hr0.0 mm/hr 0.00 in0.0 mm
12:06 PM 46.5°F8.1°C 42.9°F6.1°C 86% - N16091.8 kmh N -- 28.87 in977.7 mb 0.00 in0.0 mm 0.00 in/hr0.0 mm/hr 0.00 in0.0 mm
12:01 PM 46.5°F8.1°C 42.9°F6.1°C 86% - N16091.8 kmh N -- 28.87 in977.7 mb 0.00 in0.0 mm 0.00 in/hr0.0 mm/hr 0.00 in0.0 mm
11:55 AM 46.4°F8.0°C 42.4°F5.8°C 87% - N16091.8 kmh N -- 28.87 in977.7 mb 0.00 in0.0 mm 0.00 in/hr0.0 mm/hr 0.00 in0.0 mm
11:50 AM 46.4°F8.0°C 42.4°F5.8°C 86% - N16091.8 kmh N -- 28.86 in977.3 mb 0.00 in0.0 mm 0.00 in/hr0.0 mm/hr 0.00 in0.0 mm
11:46 AM 46.2°F7.9°C 42.2°F5.7°C 86% - N16091.8 kmh N -- 28.86 in977.3 mb 0.00 in0.0 mm 0.00 in/hr0.0 mm/hr 0.00 in0.0 mm
11:41 AM 46.2°F7.9°C 42.2°F5.7°C 86% - N16091.8 kmh N -- 28.86 in977.3 mb 0.00 in0.0 mm 0.00 in/hr0.0 mm/hr 0.00 in0.0 mm
11:36 AM 46.2°F7.9°C 42.2°F5.7°C 86% - N16091.8 kmh N -- 28.86 in977.3 mb 0.00 in0.0 mm 0.00 in/hr0.0 mm/hr 0.00 in0.0 mm
11:30 AM 46.0°F7.8°C 42.1°F5.6°C 86% - N16091.8 kmh N -- 28.86 in977.3 mb 0.00 in0.0 mm 0.00 in/hr0.0 mm/hr 0.00 in0.0 mm
11:25 AM 46.0°F7.8°C 42.1°F5.6°C 86% - N16091.8 kmh N -- 28.85 in977.0 mb 0.00 in0.0 mm 0.00 in/hr0.0 mm/hr 0.00 in0.0 mm
11:20 AM 46.0°F7.8°C 42.1°F5.6°C 86% - N16091.8 kmh N -- 28.85 in977.0 mb 0.00 in0.0 mm 0.00 in/hr0.0 mm/hr 0.00 in0.0 mm
11:15 AM 46.0°F7.8°C 42.1°F5.6°C 86% - N16091.8 kmh N -- 28.85 in977.0 mb 0.00 in0.0 mm 0.00 in/hr0.0 mm/hr 0.00 in0.0 mm
11:10 AM 45.8°F7.7°C 41.9°F5.5°C 86% - N16091.8 kmh N -- 28.85 in977.0 mb 0.00 in0.0 mm 0.00 in/hr0.0 mm/hr 0.00 in0.0 mm
11:05 AM 45.8°F7.7°C 41.9°F5.5°C 86% - N16091.8 kmh N -- 28.85 in977.0 mb 0.00 in0.0 mm 0.00 in/hr0.0 mm/hr 0.00 in0.0 mm
11:01 AM 45.6°F7.6°C 41.4°F5.2°C 86% - N16091.8 kmh N -- 28.85 in977.0 mb 0.00 in0.0 mm 0.00 in/hr0.0 mm/hr 0.00 in0.0 mm
10:56 AM 45.6°F7.6°C 41.4°F5.2°C 85% - N16091.8 kmh N -- 28.85 in977.0 mb 0.00 in0.0 mm 0.00 in/hr0.0 mm/hr 0.00 in0.0 mm
10:50 AM 45.6°F7.6°C 41.4°F5.2°C 86% - N16091.8 kmh N -- 28.85 in977.0 mb 0.00 in0.0 mm 0.00 in/hr0.0 mm/hr 0.00 in0.0 mm
10:45 AM 45.8°F7.7°C 41.9°F5.5°C 86% - N16091.8 kmh N -- 28.85 in977.0 mb 0.00 in0.0 mm 0.00 in/hr0.0 mm/hr 0.00 in0.0 mm
10:40 AM 45.6°F7.6°C 41.4°F5.2°C 85% - N16091.8 kmh N -- 28.85 in977.0 mb 0.00 in0.0 mm 0.00 in/hr0.0 mm/hr 0.00 in0.0 mm
10:35 AM 45.8°F7.7°C 41.6°F5.3°C 85% - N16091.8 kmh N -- 28.85 in977.0 mb 0.00 in0.0 mm 0.00 in/hr0.0 mm/hr 0.00 in0.0 mm
10:30 AM 45.6°F7.6°C 41.4°F5.2°C 85% - N16091.8 kmh N -- 28.85 in977.0 mb 0.00 in0.0 mm 0.00 in/hr0.0 mm/hr 0.00 in0.0 mm
10:24 AM 45.8°F7.7°C 41.6°F5.3°C 85% - N16091.8 kmh N -- 28.85 in977.0 mb 0.00 in0.0 mm 0.00 in/hr0.0 mm/hr 0.00 in0.0 mm
10:19 AM 45.8°F7.7°C 41.6°F5.3°C 85% - N16091.8 kmh N -- 28.85 in977.0 mb 0.00 in0.0 mm 0.00 in/hr0.0 mm/hr 0.00 in0.0 mm
10:14 AM 45.8°F7.7°C 41.6°F5.3°C 85% - N16091.8 kmh N -- 28.85 in977.0 mb 0.00 in0.0 mm 0.00 in/hr0.0 mm/hr 0.00 in0.0 mm
10:09 AM 45.6°F7.6°C 41.1°F5.1°C 85% - N16091.8 kmh N -- 28.84 in976.6 mb 0.00 in0.0 mm 0.00 in/hr0.0 mm/hr 0.00 in0.0 mm
10:02 AM 45.6°F7.6°C 41.1°F5.1°C 84% - N16091.8 kmh N -- 28.84 in976.6 mb 0.00 in0.0 mm 0.00 in/hr0.0 mm/hr 0.00 in0.0 mm
09:58 AM 45.6°F7.6°C 41.1°F5.1°C 84% - N16091.8 kmh N -- 28.84 in976.6 mb 0.00 in0.0 mm 0.00 in/hr0.0 mm/hr 0.00 in0.0 mm
09:54 AM 45.6°F7.6°C 41.1°F5.1°C 84% - N16091.8 kmh N -- 28.84 in976.6 mb 0.00 in0.0 mm 0.00 in/hr0.0 mm/hr 0.00 in0.0 mm
09:47 AM 45.6°F7.6°C 40.8°F4.9°C 84% - N16091.8 kmh N -- 28.84 in976.6 mb 0.00 in0.0 mm 0.00 in/hr0.0 mm/hr 0.00 in0.0 mm
09:44 AM 45.6°F7.6°C 40.8°F4.9°C 84% - N16091.8 kmh N -- 28.84 in976.6 mb 0.00 in0.0 mm 0.00 in/hr0.0 mm/hr 0.00 in0.0 mm
09:39 AM 45.6°F7.6°C 40.8°F4.9°C 84% - N16091.8 kmh N -- 28.83 in976.3 mb 0.00 in0.0 mm 0.00 in/hr0.0 mm/hr 0.00 in0.0 mm
09:34 AM 45.6°F7.6°C 40.8°F4.9°C 83% - N16091.8 kmh N -- 28.83 in976.3 mb 0.00 in0.0 mm 0.00 in/hr0.0 mm/hr 0.00 in0.0 mm
09:28 AM 45.6°F7.6°C 40.8°F4.9°C 83% - N16091.8 kmh N -- 28.83 in976.3 mb 0.00 in0.0 mm 0.00 in/hr0.0 mm/hr 0.00 in0.0 mm
09:20 AM 45.6°F7.6°C 40.8°F4.9°C 83% - N16091.8 kmh N -- 28.83 in976.3 mb 0.00 in0.0 mm 0.00 in/hr0.0 mm/hr 0.00 in0.0 mm
09:17 AM 45.6°F7.6°C 40.8°F4.9°C 83% - N16091.8 kmh N -- 28.83 in976.3 mb 0.00 in0.0 mm 0.00 in/hr0.0 mm/hr 0.00 in0.0 mm
09:13 AM 45.6°F7.6°C 40.8°F4.9°C 83% - N16091.8 kmh N -- 28.83 in976.3 mb 0.00 in0.0 mm 0.00 in/hr0.0 mm/hr 0.00 in0.0 mm
09:08 AM 45.5°F7.5°C 40.9°F4.9°C 83% - N16091.8 kmh N -- 28.83 in976.3 mb 0.00 in0.0 mm 0.00 in/hr0.0 mm/hr 0.00 in0.0 mm
09:02 AM 45.5°F7.5°C 40.9°F4.9°C 84% - N16091.8 kmh N -- 28.83 in976.3 mb 0.00 in0.0 mm 0.00 in/hr0.0 mm/hr 0.00 in0.0 mm
08:58 AM 45.5°F7.5°C 40.9°F4.9°C 84% - N16091.8 kmh N -- 28.83 in976.3 mb 0.00 in0.0 mm 0.00 in/hr0.0 mm/hr 0.00 in0.0 mm
08:54 AM 45.3°F7.4°C 40.7°F4.8°C 84% - N16091.8 kmh N -- 28.83 in976.3 mb 0.00 in0.0 mm 0.00 in/hr0.0 mm/hr 0.00 in0.0 mm
08:48 AM 45.3°F7.4°C 40.7°F4.8°C 84% - N16091.8 kmh N -- 28.83 in976.3 mb 0.00 in0.0 mm 0.00 in/hr0.0 mm/hr 0.00 in0.0 mm
08:43 AM 45.3°F7.4°C 40.7°F4.8°C 84% - N16091.8 kmh N -- 28.83 in976.3 mb 0.00 in0.0 mm 0.00 in/hr0.0 mm/hr 0.00 in0.0 mm
08:38 AM 45.5°F7.5°C 40.9°F4.9°C 84% - N16091.8 kmh N -- 28.82 in976.0 mb 0.00 in0.0 mm 0.00 in/hr0.0 mm/hr 0.00 in0.0 mm
08:33 AM 45.5°F7.5°C 40.9°F4.9°C 84% - N16091.8 kmh N -- 28.83 in976.3 mb 0.00 in0.0 mm 0.00 in/hr0.0 mm/hr 0.00 in0.0 mm
08:28 AM 45.5°F7.5°C 40.9°F4.9°C 84% - N16091.8 kmh N -- 28.83 in976.3 mb 0.00 in0.0 mm 0.00 in/hr0.0 mm/hr 0.00 in0.0 mm
08:23 AM 45.5°F7.5°C 40.9°F4.9°C 84% - N16091.8 kmh N -- 28.83 in976.3 mb 0.00 in0.0 mm 0.00 in/hr0.0 mm/hr 0.00 in0.0 mm
08:18 AM 45.5°F7.5°C 40.9°F4.9°C 84% - N16091.8 kmh N -- 28.82 in976.0 mb 0.00 in0.0 mm 0.00 in/hr0.0 mm/hr 0.00 in0.0 mm
08:13 AM 45.3°F7.4°C 41.0°F5.0°C 85% - N16091.8 kmh N -- 28.83 in976.3 mb 0.00 in0.0 mm 0.00 in/hr0.0 mm/hr 0.00 in0.0 mm
08:07 AM 45.3°F7.4°C 41.0°F5.0°C 85% - N16091.8 kmh N -- 28.83 in976.3 mb 0.00 in0.0 mm 0.00 in/hr0.0 mm/hr 0.00 in0.0 mm
08:02 AM 45.3°F7.4°C 41.0°F5.0°C 85% - N16091.8 kmh N -- 28.83 in976.3 mb 0.00 in0.0 mm 0.00 in/hr0.0 mm/hr 0.00 in0.0 mm
07:57 AM 45.3°F7.4°C 41.0°F5.0°C 84% - N16091.8 kmh N -- 28.83 in976.3 mb 0.00 in0.0 mm 0.00 in/hr0.0 mm/hr 0.00 in0.0 mm
07:53 AM 45.3°F7.4°C 41.0°F5.0°C 84% - N16091.8 kmh N -- 28.83 in976.3 mb 0.00 in0.0 mm 0.00 in/hr0.0 mm/hr 0.00 in0.0 mm
07:47 AM 45.3°F7.4°C 41.0°F5.0°C 84% - N16091.8 kmh N -- 28.83 in976.3 mb 0.00 in0.0 mm 0.00 in/hr0.0 mm/hr 0.00 in0.0 mm
07:42 AM 45.3°F7.4°C 41.0°F5.0°C 84% - N16091.8 kmh N -- 28.83 in976.3 mb 0.00 in0.0 mm 0.00 in/hr0.0 mm/hr 0.00 in0.0 mm
07:37 AM 45.3°F7.4°C 41.0°F5.0°C 84% - N16091.8 kmh N -- 28.83 in976.3 mb 0.00 in0.0 mm 0.00 in/hr0.0 mm/hr 0.00 in0.0 mm
07:32 AM 45.3°F7.4°C 41.0°F5.0°C 84% - N16091.8 kmh N -- 28.83 in976.3 mb 0.00 in0.0 mm 0.00 in/hr0.0 mm/hr 0.00 in0.0 mm
07:27 AM 45.1°F7.3°C 40.9°F4.9°C 85% - N16091.8 kmh N -- 28.83 in976.3 mb 0.00 in0.0 mm 0.00 in/hr0.0 mm/hr 0.00 in0.0 mm
07:22 AM 45.1°F7.3°C 40.9°F4.9°C 85% - N16091.8 kmh N -- 28.83 in976.3 mb 0.00 in0.0 mm 0.00 in/hr0.0 mm/hr 0.00 in0.0 mm
07:17 AM 45.1°F7.3°C 40.9°F4.9°C 85% - N16091.8 kmh N -- 28.83 in976.3 mb 0.00 in0.0 mm 0.00 in/hr0.0 mm/hr 0.00 in0.0 mm
07:12 AM 45.1°F7.3°C 40.9°F4.9°C 85% - N16091.8 kmh N -- 28.83 in976.3 mb 0.00 in0.0 mm 0.00 in/hr0.0 mm/hr 0.00 in0.0 mm
07:07 AM 45.1°F7.3°C 40.9°F4.9°C 85% - N16091.8 kmh N -- 28.83 in976.3 mb 0.00 in0.0 mm 0.00 in/hr0.0 mm/hr 0.00 in0.0 mm
07:02 AM 45.1°F7.3°C 40.9°F4.9°C 85% - N16091.8 kmh N -- 28.83 in976.3 mb 0.00 in0.0 mm 0.00 in/hr0.0 mm/hr 0.00 in0.0 mm
06:57 AM 45.1°F7.3°C 40.9°F4.9°C 85% - N16091.8 kmh N -- 28.83 in976.3 mb 0.00 in0.0 mm 0.00 in/hr0.0 mm/hr 0.00 in0.0 mm
06:52 AM 45.1°F7.3°C 40.9°F4.9°C 85% - N16091.8 kmh N -- 28.83 in976.3 mb 0.00 in0.0 mm 0.00 in/hr0.0 mm/hr 0.00 in0.0 mm
06:47 AM 45.1°F7.3°C 40.9°F4.9°C 85% - N16091.8 kmh N -- 28.83 in976.3 mb 0.00 in0.0 mm 0.00 in/hr0.0 mm/hr 0.00 in0.0 mm
06:42 AM 45.1°F7.3°C 40.9°F4.9°C 85% - N16091.8 kmh N -- 28.83 in976.3 mb 0.00 in0.0 mm 0.00 in/hr0.0 mm/hr 0.00 in0.0 mm
06:37 AM 44.9°F7.2°C 41.0°F5.0°C 85% - N16091.8 kmh N -- 28.83 in976.3 mb 0.00 in0.0 mm 0.00 in/hr0.0 mm/hr 0.00 in0.0 mm
06:32 AM 44.9°F7.2°C 41.0°F5.0°C 85% - N16091.8 kmh N -- 28.84 in976.6 mb 0.00 in0.0 mm 0.00 in/hr0.0 mm/hr 0.00 in0.0 mm
06:27 AM 44.9°F7.2°C 41.0°F5.0°C 85% - N16091.8 kmh N -- 28.83 in976.3 mb 0.00 in0.0 mm 0.00 in/hr0.0 mm/hr 0.00 in0.0 mm
06:22 AM 44.9°F7.2°C 41.0°F5.0°C 85% - N16091.8 kmh N -- 28.83 in976.3 mb 0.00 in0.0 mm 0.00 in/hr0.0 mm/hr 0.00 in0.0 mm
06:17 AM 44.9°F7.2°C 41.0°F5.0°C 85% - N16091.8 kmh N -- 28.83 in976.3 mb 0.00 in0.0 mm 0.00 in/hr0.0 mm/hr 0.00 in0.0 mm
06:12 AM 44.9°F7.2°C 41.0°F5.0°C 86% - N16091.8 kmh N -- 28.84 in976.6 mb 0.00 in0.0 mm 0.00 in/hr0.0 mm/hr 0.00 in0.0 mm
06:07 AM 44.7°F7.1°C 40.8°F4.9°C 86% - N16091.8 kmh N -- 28.83 in976.3 mb 0.00 in0.0 mm 0.00 in/hr0.0 mm/hr 0.00 in0.0 mm
06:02 AM 44.9°F7.2°C 41.0°F5.0°C 86% - N16091.8 kmh N -- 28.84 in976.6 mb 0.00 in0.0 mm 0.00 in/hr0.0 mm/hr 0.00 in0.0 mm
05:57 AM 44.7°F7.1°C 40.8°F4.9°C 86% - N16091.8 kmh N -- 28.84 in976.6 mb 0.00 in0.0 mm 0.00 in/hr0.0 mm/hr 0.00 in0.0 mm
05:52 AM 44.7°F7.1°C 40.8°F4.9°C 86% - N16091.8 kmh N -- 28.84 in976.6 mb 0.00 in0.0 mm 0.00 in/hr0.0 mm/hr 0.00 in0.0 mm
05:47 AM 44.7°F7.1°C 40.8°F4.9°C 86% - N16091.8 kmh N -- 28.84 in976.6 mb 0.00 in0.0 mm 0.00 in/hr0.0 mm/hr 0.00 in0.0 mm
05:42 AM 44.4°F6.9°C 40.4°F4.7°C 86% - N16091.8 kmh N -- 28.84 in976.6 mb 0.00 in0.0 mm 0.00 in/hr0.0 mm/hr 0.00 in0.0 mm
05:37 AM 44.4°F6.9°C 40.4°F4.7°C 86% - N16091.8 kmh N -- 28.84 in976.6 mb 0.00 in0.0 mm 0.00 in/hr0.0 mm/hr 0.00 in0.0 mm
05:32 AM 44.4°F6.9°C 40.4°F4.7°C 86% - N16091.8 kmh N -- 28.84 in976.6 mb 0.00 in0.0 mm 0.00 in/hr0.0 mm/hr 0.00 in0.0 mm
05:27 AM 44.4°F6.9°C 40.4°F4.7°C 86% - N16091.8 kmh N -- 28.85 in977.0 mb 0.00 in0.0 mm 0.00 in/hr0.0 mm/hr 0.00 in0.0 mm
05:21 AM 44.4°F6.9°C 40.4°F4.7°C 86% - N16091.8 kmh N -- 28.85 in977.0 mb 0.00 in0.0 mm 0.00 in/hr0.0 mm/hr 0.00 in0.0 mm
05:17 AM 44.2°F6.8°C 40.6°F4.8°C 87% - N16091.8 kmh N -- 28.85 in977.0 mb 0.00 in0.0 mm 0.00 in/hr0.0 mm/hr 0.00 in0.0 mm
05:10 AM 44.2°F6.8°C 40.6°F4.8°C 87% - N16091.8 kmh N -- 28.85 in977.0 mb 0.00 in0.0 mm 0.00 in/hr0.0 mm/hr 0.00 in0.0 mm
05:06 AM 44.2°F6.8°C 40.6°F4.8°C 87% - N16091.8 kmh N -- 28.85 in977.0 mb 0.00 in0.0 mm 0.00 in/hr0.0 mm/hr 0.00 in0.0 mm
05:01 AM 44.2°F6.8°C 40.6°F4.8°C 87% - N16091.8 kmh N -- 28.85 in977.0 mb 0.00 in0.0 mm 0.00 in/hr0.0 mm/hr 0.00 in0.0 mm
04:56 AM 44.0°F6.7°C 40.4°F4.7°C 87% - N16091.8 kmh N -- 28.85 in977.0 mb 0.00 in0.0 mm 0.00 in/hr0.0 mm/hr 0.00 in0.0 mm
04:51 AM 44.0°F6.7°C 40.4°F4.7°C 87% - N16091.8 kmh N -- 28.85 in977.0 mb 0.00 in0.0 mm 0.00 in/hr0.0 mm/hr 0.00 in0.0 mm
04:46 AM 44.2°F6.8°C 40.6°F4.8°C 87% - N16091.8 kmh N -- 28.86 in977.3 mb 0.00 in0.0 mm 0.00 in/hr0.0 mm/hr 0.00 in0.0 mm
04:41 AM 44.2°F6.8°C 40.6°F4.8°C 87% - N16091.8 kmh N -- 28.86 in977.3 mb 0.00 in0.0 mm 0.00 in/hr0.0 mm/hr 0.00 in0.0 mm
04:36 AM 44.2°F6.8°C 40.6°F4.8°C 87% - N16091.8 kmh N -- 28.86 in977.3 mb 0.00 in0.0 mm 0.00 in/hr0.0 mm/hr 0.00 in0.0 mm
04:31 AM 44.2°F6.8°C 40.6°F4.8°C 87% - N16091.8 kmh N -- 28.86 in977.3 mb 0.00 in0.0 mm 0.00 in/hr0.0 mm/hr 0.00 in0.0 mm
04:26 AM 44.2°F6.8°C 40.6°F4.8°C 86% - N16091.8 kmh N -- 28.87 in977.7 mb 0.00 in0.0 mm 0.00 in/hr0.0 mm/hr 0.00 in0.0 mm
04:21 AM 44.2°F6.8°C 40.6°F4.8°C 86% - N16091.8 kmh N -- 28.87 in977.7 mb 0.00 in0.0 mm 0.00 in/hr0.0 mm/hr 0.00 in0.0 mm
04:16 AM 44.4°F6.9°C 40.8°F4.9°C 87% - N16091.8 kmh N -- 28.88 in978.0 mb 0.00 in0.0 mm 0.00 in/hr0.0 mm/hr 0.00 in0.0 mm
04:11 AM 44.4°F6.9°C 40.8°F4.9°C 87% - N16091.8 kmh N -- 28.88 in978.0 mb 0.00 in0.0 mm 0.00 in/hr0.0 mm/hr 0.00 in0.0 mm
04:06 AM 44.4°F6.9°C 40.8°F4.9°C 87% - N16091.8 kmh N -- 28.88 in978.0 mb 0.00 in0.0 mm 0.00 in/hr0.0 mm/hr 0.00 in0.0 mm
04:01 AM 44.4°F6.9°C 40.8°F4.9°C 87% - N16091.8 kmh N -- 28.88 in978.0 mb 0.00 in0.0 mm 0.00 in/hr0.0 mm/hr 0.00 in0.0 mm
03:55 AM 44.4°F6.9°C 40.8°F4.9°C 87% - N16091.8 kmh N -- 28.88 in978.0 mb 0.00 in0.0 mm 0.00 in/hr0.0 mm/hr 0.00 in0.0 mm
03:50 AM 44.4°F6.9°C 40.8°F4.9°C 87% - N16091.8 kmh N -- 28.89 in978.3 mb 0.00 in0.0 mm 0.00 in/hr0.0 mm/hr 0.00 in0.0 mm
03:45 AM 44.4°F6.9°C 40.8°F4.9°C 87% - N16091.8 kmh N -- 28.89 in978.3 mb 0.00 in0.0 mm 0.00 in/hr0.0 mm/hr 0.00 in0.0 mm
03:40 AM 44.4°F6.9°C 40.8°F4.9°C 87% - N16091.8 kmh N -- 28.90 in978.7 mb 0.00 in0.0 mm 0.00 in/hr0.0 mm/hr 0.00 in0.0 mm
03:35 AM 44.4°F6.9°C 40.8°F4.9°C 87% - N16091.8 kmh N -- 28.90 in978.7 mb 0.00 in0.0 mm 0.00 in/hr0.0 mm/hr 0.00 in0.0 mm
03:30 AM 44.4°F6.9°C 40.8°F4.9°C 87% - N16091.8 kmh N -- 28.90 in978.7 mb 0.00 in0.0 mm 0.00 in/hr0.0 mm/hr 0.00 in0.0 mm
03:25 AM 44.4°F6.9°C 40.8°F4.9°C 87% - N16091.8 kmh N -- 28.90 in978.7 mb 0.00 in0.0 mm 0.00 in/hr0.0 mm/hr 0.00 in0.0 mm
03:20 AM 44.4°F6.9°C 40.8°F4.9°C 87% - N16091.8 kmh N -- 28.90 in978.7 mb 0.00 in0.0 mm 0.00 in/hr0.0 mm/hr 0.00 in0.0 mm
03:15 AM 44.4°F6.9°C 40.8°F4.9°C 87% - N16091.8 kmh N -- 28.90 in978.7 mb 0.00 in0.0 mm 0.00 in/hr0.0 mm/hr 0.00 in0.0 mm
03:10 AM 44.4°F6.9°C 40.8°F4.9°C 87% - N16091.8 kmh N -- 28.90 in978.7 mb 0.00 in0.0 mm 0.00 in/hr0.0 mm/hr 0.00 in0.0 mm
03:05 AM 44.4°F6.9°C 40.8°F4.9°C 87% - N16091.8 kmh N -- 28.90 in978.7 mb 0.00 in0.0 mm 0.00 in/hr0.0 mm/hr 0.00 in0.0 mm
03:00 AM 44.4°F6.9°C 40.8°F4.9°C 87% - N16091.8 kmh N -- 28.90 in978.7 mb 0.00 in0.0 mm 0.00 in/hr0.0 mm/hr 0.00 in0.0 mm
02:55 AM 44.4°F6.9°C 40.8°F4.9°C 87% - N16091.8 kmh N -- 28.91 in979.0 mb 0.00 in0.0 mm 0.00 in/hr0.0 mm/hr 0.00 in0.0 mm
02:50 AM 44.4°F6.9°C 40.8°F4.9°C 87% - N16091.8 kmh N -- 28.91 in979.0 mb 0.00 in0.0 mm 0.00 in/hr0.0 mm/hr 0.00 in0.0 mm
02:45 AM 44.4°F6.9°C 40.8°F4.9°C 87% - N16091.8 kmh N -- 28.91 in979.0 mb 0.00 in0.0 mm 0.00 in/hr0.0 mm/hr 0.00 in0.0 mm
02:40 AM 44.4°F6.9°C 40.8°F4.9°C 87% - N16091.8 kmh N -- 28.91 in979.0 mb 0.00 in0.0 mm 0.00 in/hr0.0 mm/hr 0.00 in0.0 mm
02:35 AM 44.6°F7.0°C 40.9°F4.9°C 87% - N16091.8 kmh N -- 28.91 in979.0 mb 0.00 in0.0 mm 0.00 in/hr0.0 mm/hr 0.00 in0.0 mm
02:30 AM 44.6°F7.0°C 40.9°F4.9°C 87% - N16091.8 kmh N -- 28.91 in979.0 mb 0.00 in0.0 mm 0.00 in/hr0.0 mm/hr 0.00 in0.0 mm
02:25 AM 44.7°F7.1°C 40.8°F4.9°C 87% - N16091.8 kmh N -- 28.92 in979.3 mb 0.00 in0.0 mm 0.00 in/hr0.0 mm/hr 0.00 in0.0 mm
02:20 AM 44.7°F7.1°C 40.8°F4.9°C 87% - N16091.8 kmh N -- 28.92 in979.3 mb 0.00 in0.0 mm 0.00 in/hr0.0 mm/hr 0.00 in0.0 mm
02:15 AM 44.7°F7.1°C 40.8°F4.9°C 86% - N16091.8 kmh N -- 28.92 in979.3 mb 0.00 in0.0 mm 0.00 in/hr0.0 mm/hr 0.00 in0.0 mm
02:10 AM 44.7°F7.1°C 40.8°F4.9°C 86% - N16091.8 kmh N -- 28.92 in979.3 mb 0.00 in0.0 mm 0.00 in/hr0.0 mm/hr 0.00 in0.0 mm
02:05 AM 44.9°F7.2°C 41.0°F5.0°C 86% - N16091.8 kmh N -- 28.92 in979.3 mb 0.00 in0.0 mm 0.00 in/hr0.0 mm/hr 0.00 in0.0 mm
02:00 AM 44.9°F7.2°C 41.0°F5.0°C 86% - N16091.8 kmh N -- 28.93 in979.7 mb 0.00 in0.0 mm 0.00 in/hr0.0 mm/hr 0.00 in0.0 mm
01:55 AM 44.9°F7.2°C 41.0°F5.0°C 86% - N16091.8 kmh N -- 28.93 in979.7 mb 0.00 in0.0 mm 0.00 in/hr0.0 mm/hr 0.00 in0.0 mm
01:50 AM 44.9°F7.2°C 41.0°F5.0°C 86% - N16091.8 kmh N -- 28.93 in979.7 mb 0.00 in0.0 mm 0.00 in/hr0.0 mm/hr 0.00 in0.0 mm
01:45 AM 45.1°F7.3°C 41.2°F5.1°C 86% - N16091.8 kmh N -- 28.93 in979.7 mb 0.00 in0.0 mm 0.00 in/hr0.0 mm/hr 0.00 in0.0 mm
01:40 AM 45.1°F7.3°C 41.2°F5.1°C 86% - N16091.8 kmh N -- 28.93 in979.7 mb 0.00 in0.0 mm 0.00 in/hr0.0 mm/hr 0.00 in0.0 mm
01:35 AM 45.3°F7.4°C 41.3°F5.2°C 86% - N16091.8 kmh N -- 28.93 in979.7 mb 0.00 in0.0 mm 0.00 in/hr0.0 mm/hr 0.00 in0.0 mm
01:30 AM 45.3°F7.4°C 41.3°F5.2°C 86% - N16091.8 kmh N -- 28.94 in980.0 mb 0.00 in0.0 mm 0.00 in/hr0.0 mm/hr 0.00 in0.0 mm
01:25 AM 45.3°F7.4°C 41.3°F5.2°C 86% - N16091.8 kmh N -- 28.94 in980.0 mb 0.00 in0.0 mm 0.00 in/hr0.0 mm/hr 0.00 in0.0 mm
01:20 AM 45.5°F7.5°C 41.5°F5.3°C 86% - N16091.8 kmh N -- 28.94 in980.0 mb 0.00 in0.0 mm 0.00 in/hr0.0 mm/hr 0.00 in0.0 mm
01:15 AM 45.5°F7.5°C 41.5°F5.3°C 86% - N16091.8 kmh N -- 28.95 in980.4 mb 0.00 in0.0 mm 0.00 in/hr0.0 mm/hr 0.00 in0.0 mm
01:10 AM 45.6°F7.6°C 41.7°F5.4°C 86% - N16091.8 kmh N -- 28.94 in980.0 mb 0.00 in0.0 mm 0.00 in/hr0.0 mm/hr 0.00 in0.0 mm
01:04 AM 45.6°F7.6°C 41.7°F5.4°C 86% - N16091.8 kmh N -- 28.95 in980.4 mb 0.00 in0.0 mm 0.00 in/hr0.0 mm/hr 0.00 in0.0 mm
12:59 AM 45.8°F7.7°C 41.9°F5.5°C 86% - N16091.8 kmh N -- 28.95 in980.4 mb 0.00 in0.0 mm 0.00 in/hr0.0 mm/hr 0.00 in0.0 mm
12:54 AM 45.8°F7.7°C 41.9°F5.5°C 86% - N16091.8 kmh N -- 28.96 in980.7 mb 0.00 in0.0 mm 0.00 in/hr0.0 mm/hr 0.00 in0.0 mm
12:49 AM 46.0°F7.8°C 42.1°F5.6°C 86% - N16091.8 kmh N -- 28.96 in980.7 mb 0.00 in0.0 mm 0.00 in/hr0.0 mm/hr 0.00 in0.0 mm
12:44 AM 46.0°F7.8°C 42.4°F5.8°C 86% - N16091.8 kmh N -- 28.96 in980.7 mb 0.00 in0.0 mm 0.00 in/hr0.0 mm/hr 0.00 in0.0 mm
12:39 AM 46.0°F7.8°C 42.4°F5.8°C 86% - N16091.8 kmh N -- 28.96 in980.7 mb 0.00 in0.0 mm 0.00 in/hr0.0 mm/hr 0.00 in0.0 mm
12:34 AM 46.0°F7.8°C 42.4°F5.8°C 86% - N16091.8 kmh N -- 28.97 in981.0 mb 0.00 in0.0 mm 0.00 in/hr0.0 mm/hr 0.00 in0.0 mm
12:29 AM 46.0°F7.8°C 42.4°F5.8°C 86% - N16091.8 kmh N -- 28.97 in981.0 mb 0.00 in0.0 mm 0.00 in/hr0.0 mm/hr 0.00 in0.0 mm
12:24 AM 46.0°F7.8°C 42.4°F5.8°C 86% - N16091.8 kmh N -- 28.97 in981.0 mb 0.00 in0.0 mm 0.00 in/hr0.0 mm/hr 0.00 in0.0 mm
12:19 AM 46.0°F7.8°C 42.4°F5.8°C 86% - N16091.8 kmh N -- 28.98 in981.4 mb 0.00 in0.0 mm 0.00 in/hr0.0 mm/hr 0.00 in0.0 mm
12:11 AM 46.0°F7.8°C 42.4°F5.8°C 86% - N16091.8 kmh N -- 28.98 in981.4 mb 0.00 in0.0 mm 0.00 in/hr0.0 mm/hr 0.00 in0.0 mm
12:09 AM 46.0°F7.8°C 42.4°F5.8°C 86% - N16091.8 kmh N -- 28.98 in981.4 mb 0.00 in0.0 mm 0.00 in/hr0.0 mm/hr 0.00 in0.0 mm
12:04 AM 46.0°F7.8°C 42.4°F5.8°C 87% - N16091.8 kmh N -- 28.98 in981.4 mb 0.00 in0.0 mm 0.00 in/hr0.0 mm/hr 0.00 in0.0 mm